sensor_id;sensor_type;location;lat;lon;timestamp;temperature;humidity
5027;DHT22;2532;52.480;13.354;2022-11-15T00:02:07;8.70;96.80
5027;DHT22;2532;52.480;13.354;2022-11-15T00:04:34;8.70;96.80
5027;DHT22;2532;52.480;13.354;2022-11-15T00:07:01;8.70;96.80
5027;DHT22;2532;52.480;13.354;2022-11-15T00:09:30;8.70;96.80
5027;DHT22;2532;52.480;13.354;2022-11-15T00:11:56;8.70;96.80
5027;DHT22;2532;52.480;13.354;2022-11-15T00:14:25;8.70;96.80
5027;DHT22;2532;52.480;13.354;2022-11-15T00:16:52;8.70;96.80
5027;DHT22;2532;52.480;13.354;2022-11-15T00:19:19;8.60;96.90
5027;DHT22;2532;52.480;13.354;2022-11-15T00:21:46;8.60;96.90
5027;DHT22;2532;52.480;13.354;2022-11-15T00:24:13;8.60;96.90
5027;DHT22;2532;52.480;13.354;2022-11-15T00:26:40;8.60;96.90
5027;DHT22;2532;52.480;13.354;2022-11-15T00:29:07;8.60;96.90
5027;DHT22;2532;52.480;13.354;2022-11-15T00:31:35;8.60;96.90
5027;DHT22;2532;52.480;13.354;2022-11-15T00:34:02;8.60;96.90
5027;DHT22;2532;52.480;13.354;2022-11-15T00:36:32;8.60;96.90
5027;DHT22;2532;52.480;13.354;2022-11-15T00:38:59;8.60;96.80
5027;DHT22;2532;52.480;13.354;2022-11-15T00:41:29;8.60;96.90
5027;DHT22;2532;52.480;13.354;2022-11-15T00:43:56;8.50;96.80
5027;DHT22;2532;52.480;13.354;2022-11-15T00:46:23;8.60;96.80
5027;DHT22;2532;52.480;13.354;2022-11-15T00:48:51;8.60;96.80
5027;DHT22;2532;52.480;13.354;2022-11-15T00:51:18;8.60;96.80
5027;DHT22;2532;52.480;13.354;2022-11-15T00:53:45;8.50;96.70
5027;DHT22;2532;52.480;13.354;2022-11-15T00:56:12;8.60;96.70
5027;DHT22;2532;52.480;13.354;2022-11-15T00:58:39;8.60;96.70
5027;DHT22;2532;52.480;13.354;2022-11-15T01:01:07;8.50;96.70
5027;DHT22;2532;52.480;13.354;2022-11-15T01:03:35;8.50;96.70
5027;DHT22;2532;52.480;13.354;2022-11-15T01:06:04;8.50;96.70
5027;DHT22;2532;52.480;13.354;2022-11-15T01:08:31;8.50;96.70
5027;DHT22;2532;52.480;13.354;2022-11-15T01:11:01;8.50;96.70
5027;DHT22;2532;52.480;13.354;2022-11-15T01:13:30;8.50;96.70
5027;DHT22;2532;52.480;13.354;2022-11-15T01:15:57;8.50;96.70
5027;DHT22;2532;52.480;13.354;2022-11-15T01:18:24;8.50;96.70
5027;DHT22;2532;52.480;13.354;2022-11-15T01:20:51;8.50;96.60
5027;DHT22;2532;52.480;13.354;2022-11-15T01:23:19;8.50;96.90
5027;DHT22;2532;52.480;13.354;2022-11-15T01:25:46;8.50;96.60
5027;DHT22;2532;52.480;13.354;2022-11-15T01:28:13;8.50;96.60
5027;DHT22;2532;52.480;13.354;2022-11-15T01:30:40;8.50;96.70
5027;DHT22;2532;52.480;13.354;2022-11-15T01:33:07;8.40;96.60
5027;DHT22;2532;52.480;13.354;2022-11-15T01:35:38;8.40;96.60
5027;DHT22;2532;52.480;13.354;2022-11-15T01:38:05;8.40;96.60
5027;DHT22;2532;52.480;13.354;2022-11-15T01:40:34;8.40;96.60
5027;DHT22;2532;52.480;13.354;2022-11-15T01:43:19;8.40;96.60
5027;DHT22;2532;52.480;13.354;2022-11-15T01:45:47;8.40;96.60
5027;DHT22;2532;52.480;13.354;2022-11-15T01:48:16;8.40;96.70
5027;DHT22;2532;52.480;13.354;2022-11-15T01:50:43;8.40;96.60
5027;DHT22;2532;52.480;13.354;2022-11-15T01:53:10;8.30;96.60
5027;DHT22;2532;52.480;13.354;2022-11-15T01:55:39;8.30;96.70
5027;DHT22;2532;52.480;13.354;2022-11-15T01:58:07;8.30;96.70
5027;DHT22;2532;52.480;13.354;2022-11-15T02:00:34;8.30;96.70
5027;DHT22;2532;52.480;13.354;2022-11-15T02:03:02;8.30;96.70
5027;DHT22;2532;52.480;13.354;2022-11-15T02:05:30;8.30;96.70
5027;DHT22;2532;52.480;13.354;2022-11-15T02:07:59;8.30;96.70
5027;DHT22;2532;52.480;13.354;2022-11-15T02:10:27;8.30;96.70
5027;DHT22;2532;52.480;13.354;2022-11-15T02:12:56;8.30;96.70
5027;DHT22;2532;52.480;13.354;2022-11-15T02:15:30;8.20;96.60
5027;DHT22;2532;52.480;13.354;2022-11-15T02:18:09;8.20;96.70
5027;DHT22;2532;52.480;13.354;2022-11-15T02:20:53;8.20;96.70
5027;DHT22;2532;52.480;13.354;2022-11-15T02:29:48;8.20;96.70
5027;DHT22;2532;52.480;13.354;2022-11-15T02:32:21;8.20;96.80
5027;DHT22;2532;52.480;13.354;2022-11-15T02:34:55;8.20;96.80
5027;DHT22;2532;52.480;13.354;2022-11-15T02:37:32;8.20;97.10
5027;DHT22;2532;52.480;13.354;2022-11-15T02:40:06;8.10;96.80
5027;DHT22;2532;52.480;13.354;2022-11-15T02:42:39;8.20;96.80
5027;DHT22;2532;52.480;13.354;2022-11-15T02:45:29;8.20;96.80
5027;DHT22;2532;52.480;13.354;2022-11-15T02:47:59;8.20;96.80
5027;DHT22;2532;52.480;13.354;2022-11-15T02:50:29;8.10;96.80
5027;DHT22;2532;52.480;13.354;2022-11-15T02:52:58;8.10;96.70
5027;DHT22;2532;52.480;13.354;2022-11-15T02:55:27;8.10;96.80
5027;DHT22;2532;52.480;13.354;2022-11-15T02:58:06;8.10;97.10
5027;DHT22;2532;52.480;13.354;2022-11-15T03:00:41;8.10;96.90
5027;DHT22;2532;52.480;13.354;2022-11-15T03:03:29;8.10;96.90
5027;DHT22;2532;52.480;13.354;2022-11-15T03:06:05;8.10;96.90
5027;DHT22;2532;52.480;13.354;2022-11-15T03:08:45;8.10;96.80
5027;DHT22;2532;52.480;13.354;2022-11-15T03:11:18;8.10;96.80
5027;DHT22;2532;52.480;13.354;2022-11-15T03:13:52;8.10;96.80
5027;DHT22;2532;52.480;13.354;2022-11-15T03:16:25;8.10;96.80
5027;DHT22;2532;52.480;13.354;2022-11-15T03:18:58;8.10;96.80
5027;DHT22;2532;52.480;13.354;2022-11-15T03:21:28;8.10;96.80
5027;DHT22;2532;52.480;13.354;2022-11-15T03:23:59;8.10;96.80
5027;DHT22;2532;52.480;13.354;2022-11-15T03:26:28;8.10;96.80
5027;DHT22;2532;52.480;13.354;2022-11-15T03:28:58;8.00;96.80
5027;DHT22;2532;52.480;13.354;2022-11-15T03:31:30;8.00;96.80
5027;DHT22;2532;52.480;13.354;2022-11-15T03:34:21;8.10;97.10
5027;DHT22;2532;52.480;13.354;2022-11-15T03:36:50;8.10;96.90
5027;DHT22;2532;52.480;13.354;2022-11-15T03:39:17;8.00;96.80
5027;DHT22;2532;52.480;13.354;2022-11-15T03:41:48;8.00;97.10
5027;DHT22;2532;52.480;13.354;2022-11-15T03:44:26;8.00;96.80
5027;DHT22;2532;52.480;13.354;2022-11-15T03:47:01;8.00;96.80
5027;DHT22;2532;52.480;13.354;2022-11-15T03:49:33;8.10;96.90
5027;DHT22;2532;52.480;13.354;2022-11-15T03:52:02;8.10;96.90
5027;DHT22;2532;52.480;13.354;2022-11-15T03:54:30;8.00;96.80
5027;DHT22;2532;52.480;13.354;2022-11-15T03:56:57;8.10;96.90
5027;DHT22;2532;52.480;13.354;2022-11-15T03:59:24;8.10;96.90
5027;DHT22;2532;52.480;13.354;2022-11-15T04:01:51;8.10;96.90
5027;DHT22;2532;52.480;13.354;2022-11-15T04:04:17;8.00;96.80
5027;DHT22;2532;52.480;13.354;2022-11-15T04:06:46;8.00;96.80
5027;DHT22;2532;52.480;13.354;2022-11-15T04:09:13;8.10;96.80
5027;DHT22;2532;52.480;13.354;2022-11-15T04:11:39;8.00;96.80
5027;DHT22;2532;52.480;13.354;2022-11-15T04:14:06;8.00;96.80
5027;DHT22;2532;52.480;13.354;2022-11-15T04:16:33;8.00;96.70
5027;DHT22;2532;52.480;13.354;2022-11-15T04:19:00;8.00;96.70
5027;DHT22;2532;52.480;13.354;2022-11-15T04:21:46;8.00;96.80
5027;DHT22;2532;52.480;13.354;2022-11-15T04:24:30;8.00;96.80
5027;DHT22;2532;52.480;13.354;2022-11-15T04:26:57;8.00;96.80
5027;DHT22;2532;52.480;13.354;2022-11-15T04:29:24;8.00;96.80
5027;DHT22;2532;52.480;13.354;2022-11-15T04:32:05;8.00;96.90
5027;DHT22;2532;52.480;13.354;2022-11-15T04:34:32;7.90;96.90
5027;DHT22;2532;52.480;13.354;2022-11-15T04:37:01;7.90;96.90
5027;DHT22;2532;52.480;13.354;2022-11-15T04:39:42;8.00;96.90
5027;DHT22;2532;52.480;13.354;2022-11-15T04:42:10;7.90;96.80
5027;DHT22;2532;52.480;13.354;2022-11-15T04:44:37;8.00;96.90
5027;DHT22;2532;52.480;13.354;2022-11-15T04:47:04;8.00;97.20
5027;DHT22;2532;52.480;13.354;2022-11-15T04:49:31;7.90;96.80
5027;DHT22;2532;52.480;13.354;2022-11-15T04:51:58;7.90;96.90
5027;DHT22;2532;52.480;13.354;2022-11-15T04:54:27;7.90;96.90
5027;DHT22;2532;52.480;13.354;2022-11-15T04:56:53;8.00;97.00
5027;DHT22;2532;52.480;13.354;2022-11-15T04:59:20;8.00;97.00
5027;DHT22;2532;52.480;13.354;2022-11-15T05:01:47;8.00;97.00
5027;DHT22;2532;52.480;13.354;2022-11-15T05:04:14;8.00;97.30
5027;DHT22;2532;52.480;13.354;2022-11-15T05:06:47;8.00;97.00
5027;DHT22;2532;52.480;13.354;2022-11-15T05:09:14;8.00;97.00
5027;DHT22;2532;52.480;13.354;2022-11-15T05:11:43;8.10;97.00
5027;DHT22;2532;52.480;13.354;2022-11-15T05:14:10;8.00;96.90
5027;DHT22;2532;52.480;13.354;2022-11-15T05:16:37;8.00;96.90
5027;DHT22;2532;52.480;13.354;2022-11-15T05:19:04;8.00;96.90
5027;DHT22;2532;52.480;13.354;2022-11-15T05:21:32;8.10;96.90
5027;DHT22;2532;52.480;13.354;2022-11-15T05:23:59;8.00;96.80
5027;DHT22;2532;52.480;13.354;2022-11-15T05:26:26;8.00;96.80
5027;DHT22;2532;52.480;13.354;2022-11-15T05:28:55;8.10;96.90
5027;DHT22;2532;52.480;13.354;2022-11-15T05:31:22;8.00;96.80
5027;DHT22;2532;52.480;13.354;2022-11-15T05:33:50;8.00;96.80
5027;DHT22;2532;52.480;13.354;2022-11-15T05:36:22;8.10;96.90
5027;DHT22;2532;52.480;13.354;2022-11-15T05:38:52;8.10;96.90
5027;DHT22;2532;52.480;13.354;2022-11-15T05:41:22;8.00;96.80
5027;DHT22;2532;52.480;13.354;2022-11-15T05:43:51;8.00;96.80
5027;DHT22;2532;52.480;13.354;2022-11-15T05:46:20;8.00;96.80
5027;DHT22;2532;52.480;13.354;2022-11-15T05:48:50;8.00;96.70
5027;DHT22;2532;52.480;13.354;2022-11-15T05:51:19;8.00;96.70
5027;DHT22;2532;52.480;13.354;2022-11-15T05:53:47;8.00;96.70
5027;DHT22;2532;52.480;13.354;2022-11-15T05:56:14;8.00;96.80
5027;DHT22;2532;52.480;13.354;2022-11-15T05:58:42;8.00;96.80
5027;DHT22;2532;52.480;13.354;2022-11-15T06:01:09;8.00;96.80
5027;DHT22;2532;52.480;13.354;2022-11-15T06:03:37;8.00;96.80
5027;DHT22;2532;52.480;13.354;2022-11-15T06:06:04;8.00;96.80
5027;DHT22;2532;52.480;13.354;2022-11-15T06:08:31;8.00;96.80
5027;DHT22;2532;52.480;13.354;2022-11-15T06:11:03;8.00;96.80
5027;DHT22;2532;52.480;13.354;2022-11-15T06:13:30;7.90;96.80
5027;DHT22;2532;52.480;13.354;2022-11-15T06:15:57;8.00;96.80
5027;DHT22;2532;52.480;13.354;2022-11-15T06:18:24;7.90;96.90
5027;DHT22;2532;52.480;13.354;2022-11-15T06:20:52;7.90;96.90
5027;DHT22;2532;52.480;13.354;2022-11-15T06:23:19;7.90;96.90
5027;DHT22;2532;52.480;13.354;2022-11-15T06:25:46;8.00;96.90
5027;DHT22;2532;52.480;13.354;2022-11-15T06:28:13;7.90;96.90
5027;DHT22;2532;52.480;13.354;2022-11-15T06:30:40;7.90;96.90
5027;DHT22;2532;52.480;13.354;2022-11-15T06:33:07;7.90;96.80
5027;DHT22;2532;52.480;13.354;2022-11-15T06:35:38;7.80;96.80
5027;DHT22;2532;52.480;13.354;2022-11-15T06:38:08;7.80;96.80
5027;DHT22;2532;52.480;13.354;2022-11-15T06:40:36;7.80;96.80
5027;DHT22;2532;52.480;13.354;2022-11-15T06:43:05;7.80;96.80
5027;DHT22;2532;52.480;13.354;2022-11-15T06:45:32;7.80;96.90
5027;DHT22;2532;52.480;13.354;2022-11-15T06:47:59;7.80;96.90
5027;DHT22;2532;52.480;13.354;2022-11-15T06:50:26;7.80;96.90
5027;DHT22;2532;52.480;13.354;2022-11-15T06:52:53;7.80;97.00
5027;DHT22;2532;52.480;13.354;2022-11-15T06:55:21;7.80;97.20
5027;DHT22;2532;52.480;13.354;2022-11-15T06:57:49;7.80;97.00
5027;DHT22;2532;52.480;13.354;2022-11-15T07:00:17;7.80;97.10
5027;DHT22;2532;52.480;13.354;2022-11-15T07:02:44;7.90;97.20
5027;DHT22;2532;52.480;13.354;2022-11-15T07:05:11;7.80;97.10
5027;DHT22;2532;52.480;13.354;2022-11-15T07:07:42;7.90;97.10
5027;DHT22;2532;52.480;13.354;2022-11-15T07:10:09;7.90;97.10
5027;DHT22;2532;52.480;13.354;2022-11-15T07:12:38;7.90;97.10
5027;DHT22;2532;52.480;13.354;2022-11-15T07:15:06;7.90;97.10
5027;DHT22;2532;52.480;13.354;2022-11-15T07:17:33;8.00;97.10
5027;DHT22;2532;52.480;13.354;2022-11-15T07:19:59;8.00;97.10
5027;DHT22;2532;52.480;13.354;2022-11-15T07:22:26;8.10;97.40
5027;DHT22;2532;52.480;13.354;2022-11-15T07:24:53;8.10;97.50
5027;DHT22;2532;52.480;13.354;2022-11-15T07:27:20;8.20;97.50
5027;DHT22;2532;52.480;13.354;2022-11-15T07:29:48;8.20;97.60
5027;DHT22;2532;52.480;13.354;2022-11-15T07:32:15;8.30;97.70
5027;DHT22;2532;52.480;13.354;2022-11-15T07:34:42;8.40;97.50
5027;DHT22;2532;52.480;13.354;2022-11-15T07:37:11;8.40;97.30
5027;DHT22;2532;52.480;13.354;2022-11-15T07:39:38;8.40;97.10
5027;DHT22;2532;52.480;13.354;2022-11-15T07:42:05;8.40;97.00
5027;DHT22;2532;52.480;13.354;2022-11-15T07:44:51;8.40;97.00
5027;DHT22;2532;52.480;13.354;2022-11-15T07:47:18;8.40;96.90
5027;DHT22;2532;52.480;13.354;2022-11-15T07:49:46;8.50;97.00
5027;DHT22;2532;52.480;13.354;2022-11-15T07:52:13;8.50;96.80
5027;DHT22;2532;52.480;13.354;2022-11-15T07:54:43;8.50;96.80
5027;DHT22;2532;52.480;13.354;2022-11-15T07:57:10;8.60;96.80
5027;DHT22;2532;52.480;13.354;2022-11-15T07:59:37;8.60;96.80
5027;DHT22;2532;52.480;13.354;2022-11-15T08:02:05;8.60;96.80
5027;DHT22;2532;52.480;13.354;2022-11-15T08:04:32;8.60;96.70
5027;DHT22;2532;52.480;13.354;2022-11-15T08:06:59;8.60;96.70
5027;DHT22;2532;52.480;13.354;2022-11-15T08:09:26;8.70;96.80
5027;DHT22;2532;52.480;13.354;2022-11-15T08:11:53;8.70;96.80
5027;DHT22;2532;52.480;13.354;2022-11-15T08:14:20;8.70;96.80
5027;DHT22;2532;52.480;13.354;2022-11-15T08:16:47;8.80;96.90
5027;DHT22;2532;52.480;13.354;2022-11-15T08:19:16;8.90;96.90
5027;DHT22;2532;52.480;13.354;2022-11-15T08:21:43;8.90;96.80
5027;DHT22;2532;52.480;13.354;2022-11-15T08:24:10;9.00;96.80
5027;DHT22;2532;52.480;13.354;2022-11-15T08:26:37;9.00;96.80
5027;DHT22;2532;52.480;13.354;2022-11-15T08:29:05;9.10;96.80
5027;DHT22;2532;52.480;13.354;2022-11-15T08:31:33;9.10;96.80
5027;DHT22;2532;52.480;13.354;2022-11-15T08:34:00;9.20;96.80
5027;DHT22;2532;52.480;13.354;2022-11-15T08:36:29;9.20;96.80
5027;DHT22;2532;52.480;13.354;2022-11-15T08:38:56;9.30;96.80
5027;DHT22;2532;52.480;13.354;2022-11-15T08:41:25;9.30;96.80
5027;DHT22;2532;52.480;13.354;2022-11-15T08:43:53;9.40;96.80
5027;DHT22;2532;52.480;13.354;2022-11-15T08:46:20;9.40;96.80
5027;DHT22;2532;52.480;13.354;2022-11-15T08:48:47;9.50;96.80
5027;DHT22;2532;52.480;13.354;2022-11-15T08:51:14;9.50;96.80
5027;DHT22;2532;52.480;13.354;2022-11-15T08:53:42;9.60;96.80
5027;DHT22;2532;52.480;13.354;2022-11-15T08:56:10;9.60;96.80
5027;DHT22;2532;52.480;13.354;2022-11-15T08:58:38;9.70;96.80
5027;DHT22;2532;52.480;13.354;2022-11-15T09:01:05;9.80;96.80
5027;DHT22;2532;52.480;13.354;2022-11-15T09:03:32;9.80;96.60
5027;DHT22;2532;52.480;13.354;2022-11-15T09:06:02;9.90;96.60
5027;DHT22;2532;52.480;13.354;2022-11-15T09:08:30;9.90;96.60
5027;DHT22;2532;52.480;13.354;2022-11-15T09:11:02;9.90;96.70
5027;DHT22;2532;52.480;13.354;2022-11-15T09:13:30;10.00;96.20
5027;DHT22;2532;52.480;13.354;2022-11-15T09:15:57;10.10;96.20
5027;DHT22;2532;52.480;13.354;2022-11-15T09:18:25;10.20;96.40
5027;DHT22;2532;52.480;13.354;2022-11-15T09:20:55;10.30;96.20
5027;DHT22;2532;52.480;13.354;2022-11-15T09:23:23;10.30;96.00
5027;DHT22;2532;52.480;13.354;2022-11-15T09:25:51;10.40;95.90
5027;DHT22;2532;52.480;13.354;2022-11-15T09:28:20;10.40;95.80
5027;DHT22;2532;52.480;13.354;2022-11-15T09:30:47;10.50;95.80
5027;DHT22;2532;52.480;13.354;2022-11-15T09:33:14;10.60;95.70
5027;DHT22;2532;52.480;13.354;2022-11-15T09:35:40;10.70;95.60
5027;DHT22;2532;52.480;13.354;2022-11-15T09:38:08;10.80;96.30
5027;DHT22;2532;52.480;13.354;2022-11-15T09:40:36;10.90;95.50
5027;DHT22;2532;52.480;13.354;2022-11-15T09:43:29;11.00;95.10
5027;DHT22;2532;52.480;13.354;2022-11-15T09:46:08;11.00;95.20
5027;DHT22;2532;52.480;13.354;2022-11-15T09:48:49;11.00;94.90
5027;DHT22;2532;52.480;13.354;2022-11-15T09:51:25;11.10;95.00
5027;DHT22;2532;52.480;13.354;2022-11-15T09:53:57;11.20;95.00
5027;DHT22;2532;52.480;13.354;2022-11-15T09:56:27;11.30;95.00
5027;DHT22;2532;52.480;13.354;2022-11-15T09:59:05;11.30;95.20
5027;DHT22;2532;52.480;13.354;2022-11-15T10:01:43;11.40;94.80
5027;DHT22;2532;52.480;13.354;2022-11-15T10:04:14;11.50;94.80
5027;DHT22;2532;52.480;13.354;2022-11-15T10:06:49;11.50;94.60
5027;DHT22;2532;52.480;13.354;2022-11-15T10:09:24;11.60;94.50
5027;DHT22;2532;52.480;13.354;2022-11-15T10:11:52;11.70;94.40
5027;DHT22;2532;52.480;13.354;2022-11-15T10:14:23;11.80;94.30
5027;DHT22;2532;52.480;13.354;2022-11-15T10:19:53;11.80;94.10
5027;DHT22;2532;52.480;13.354;2022-11-15T10:22:27;11.90;94.10
5027;DHT22;2532;52.480;13.354;2022-11-15T10:25:09;12.00;94.10
5027;DHT22;2532;52.480;13.354;2022-11-15T10:27:39;12.00;93.90
5027;DHT22;2532;52.480;13.354;2022-11-15T10:30:12;12.10;93.90
5027;DHT22;2532;52.480;13.354;2022-11-15T10:32:41;12.10;93.70
5027;DHT22;2532;52.480;13.354;2022-11-15T10:35:24;12.20;93.80
5027;DHT22;2532;52.480;13.354;2022-11-15T10:37:51;12.20;93.70
5027;DHT22;2532;52.480;13.354;2022-11-15T10:40:20;12.20;93.70
5027;DHT22;2532;52.480;13.354;2022-11-15T10:42:48;12.30;93.70
5027;DHT22;2532;52.480;13.354;2022-11-15T10:45:33;12.30;93.70
5027;DHT22;2532;52.480;13.354;2022-11-15T10:48:20;12.40;93.60
5027;DHT22;2532;52.480;13.354;2022-11-15T10:50:49;12.50;93.70
5027;DHT22;2532;52.480;13.354;2022-11-15T10:53:21;12.50;93.70
5027;DHT22;2532;52.480;13.354;2022-11-15T10:55:51;12.60;93.60
5027;DHT22;2532;52.480;13.354;2022-11-15T10:58:22;12.60;93.60
5027;DHT22;2532;52.480;13.354;2022-11-15T11:00:55;12.70;93.50
5027;DHT22;2532;52.480;13.354;2022-11-15T11:03:33;12.70;93.40
5027;DHT22;2532;52.480;13.354;2022-11-15T11:06:06;12.70;93.30
5027;DHT22;2532;52.480;13.354;2022-11-15T11:08:33;12.80;93.30
5027;DHT22;2532;52.480;13.354;2022-11-15T11:11:02;12.80;93.30
5027;DHT22;2532;52.480;13.354;2022-11-15T11:13:30;12.90;93.40
5027;DHT22;2532;52.480;13.354;2022-11-15T11:16:14;12.90;93.30
5027;DHT22;2532;52.480;13.354;2022-11-15T11:18:49;13.00;93.20
5027;DHT22;2532;52.480;13.354;2022-11-15T11:21:22;13.10;93.20
5027;DHT22;2532;52.480;13.354;2022-11-15T11:23:54;13.10;93.20
5027;DHT22;2532;52.480;13.354;2022-11-15T11:26:38;13.20;93.10
5027;DHT22;2532;52.480;13.354;2022-11-15T11:29:27;13.30;93.10
5027;DHT22;2532;52.480;13.354;2022-11-15T11:32:03;13.30;93.00
5027;DHT22;2532;52.480;13.354;2022-11-15T11:34:44;13.40;93.00
5027;DHT22;2532;52.480;13.354;2022-11-15T11:37:23;13.40;92.90
5027;DHT22;2532;52.480;13.354;2022-11-15T11:40:01;13.50;92.90
5027;DHT22;2532;52.480;13.354;2022-11-15T11:42:37;13.60;92.80
5027;DHT22;2532;52.480;13.354;2022-11-15T11:45:15;13.60;92.60
5027;DHT22;2532;52.480;13.354;2022-11-15T11:47:51;13.70;92.60
5027;DHT22;2532;52.480;13.354;2022-11-15T11:50:25;13.70;92.50
5027;DHT22;2532;52.480;13.354;2022-11-15T11:52:57;13.80;92.50
5027;DHT22;2532;52.480;13.354;2022-11-15T11:55:28;13.80;92.50
5027;DHT22;2532;52.480;13.354;2022-11-15T11:58:03;13.90;92.50
5027;DHT22;2532;52.480;13.354;2022-11-15T12:00:33;13.90;92.60
5027;DHT22;2532;52.480;13.354;2022-11-15T12:03:11;14.00;92.50
5027;DHT22;2532;52.480;13.354;2022-11-15T12:05:41;14.10;92.40
5027;DHT22;2532;52.480;13.354;2022-11-15T12:08:23;14.10;92.30
5027;DHT22;2532;52.480;13.354;2022-11-15T12:11:00;14.10;92.20
5027;DHT22;2532;52.480;13.354;2022-11-15T12:13:30;14.20;92.30
5027;DHT22;2532;52.480;13.354;2022-11-15T12:16:07;14.30;92.30
5027;DHT22;2532;52.480;13.354;2022-11-15T12:18:38;14.30;92.10
5027;DHT22;2532;52.480;13.354;2022-11-15T12:21:13;14.30;92.10
5027;DHT22;2532;52.480;13.354;2022-11-15T12:23:46;14.40;92.20
5027;DHT22;2532;52.480;13.354;2022-11-15T12:26:18;14.40;92.10
5027;DHT22;2532;52.480;13.354;2022-11-15T12:28:49;14.50;92.10
5027;DHT22;2532;52.480;13.354;2022-11-15T12:31:22;14.50;92.00
5027;DHT22;2532;52.480;13.354;2022-11-15T12:33:56;14.60;92.00
5027;DHT22;2532;52.480;13.354;2022-11-15T12:36:38;14.70;92.00
5027;DHT22;2532;52.480;13.354;2022-11-15T12:39:06;14.70;91.90
5027;DHT22;2532;52.480;13.354;2022-11-15T12:41:36;14.70;91.80
5027;DHT22;2532;52.480;13.354;2022-11-15T12:44:04;14.80;91.70
5027;DHT22;2532;52.480;13.354;2022-11-15T12:46:59;14.80;91.70
5027;DHT22;2532;52.480;13.354;2022-11-15T12:49:44;14.80;91.60
5027;DHT22;2532;52.480;13.354;2022-11-15T12:52:12;14.90;91.70
5027;DHT22;2532;52.480;13.354;2022-11-15T12:54:59;14.90;91.60
5027;DHT22;2532;52.480;13.354;2022-11-15T12:57:42;14.90;91.60
5027;DHT22;2532;52.480;13.354;2022-11-15T13:00:43;14.90;91.60
5027;DHT22;2532;52.480;13.354;2022-11-15T13:03:26;14.90;91.70
5027;DHT22;2532;52.480;13.354;2022-11-15T13:06:34;14.90;91.70
5027;DHT22;2532;52.480;13.354;2022-11-15T13:09:03;15.00;91.60
5027;DHT22;2532;52.480;13.354;2022-11-15T13:11:51;15.00;91.70
5027;DHT22;2532;52.480;13.354;2022-11-15T13:14:41;15.00;91.70
5027;DHT22;2532;52.480;13.354;2022-11-15T13:17:30;15.00;91.60
5027;DHT22;2532;52.480;13.354;2022-11-15T13:20:17;15.00;91.70
5027;DHT22;2532;52.480;13.354;2022-11-15T13:22:47;15.10;91.80
5027;DHT22;2532;52.480;13.354;2022-11-15T13:28:35;15.00;92.00
5027;DHT22;2532;52.480;13.354;2022-11-15T13:31:18;15.00;92.00
5027;DHT22;2532;52.480;13.354;2022-11-15T13:33:46;15.10;92.10
5027;DHT22;2532;52.480;13.354;2022-11-15T13:36:15;15.10;92.10
5027;DHT22;2532;52.480;13.354;2022-11-15T13:38:44;15.10;92.10
5027;DHT22;2532;52.480;13.354;2022-11-15T13:41:21;15.10;92.10
5027;DHT22;2532;52.480;13.354;2022-11-15T13:43:50;15.00;92.00
5027;DHT22;2532;52.480;13.354;2022-11-15T13:46:20;15.10;92.10
5027;DHT22;2532;52.480;13.354;2022-11-15T13:48:54;15.10;92.00
5027;DHT22;2532;52.480;13.354;2022-11-15T13:51:28;15.00;92.30
5027;DHT22;2532;52.480;13.354;2022-11-15T13:54:01;15.10;92.00
5027;DHT22;2532;52.480;13.354;2022-11-15T13:56:29;15.10;92.00
5027;DHT22;2532;52.480;13.354;2022-11-15T13:58:58;15.10;92.00
5027;DHT22;2532;52.480;13.354;2022-11-15T14:01:27;15.10;92.00
5027;DHT22;2532;52.480;13.354;2022-11-15T14:03:58;15.10;92.00
5027;DHT22;2532;52.480;13.354;2022-11-15T14:06:27;15.10;92.00
5027;DHT22;2532;52.480;13.354;2022-11-15T14:11:53;15.10;92.00
5027;DHT22;2532;52.480;13.354;2022-11-15T14:14:22;15.10;92.00
5027;DHT22;2532;52.480;13.354;2022-11-15T14:16:50;15.00;92.00
5027;DHT22;2532;52.480;13.354;2022-11-15T14:19:36;15.00;92.00
5027;DHT22;2532;52.480;13.354;2022-11-15T14:22:11;15.00;92.10
5027;DHT22;2532;52.480;13.354;2022-11-15T14:24:40;15.00;92.20
5027;DHT22;2532;52.480;13.354;2022-11-15T14:27:21;14.90;92.10
5027;DHT22;2532;52.480;13.354;2022-11-15T14:29:48;14.90;92.10
5027;DHT22;2532;52.480;13.354;2022-11-15T14:32:17;14.90;92.00
5027;DHT22;2532;52.480;13.354;2022-11-15T14:34:45;14.80;92.10
5027;DHT22;2532;52.480;13.354;2022-11-15T14:37:23;14.80;92.10
5027;DHT22;2532;52.480;13.354;2022-11-15T14:39:53;14.80;92.10
5027;DHT22;2532;52.480;13.354;2022-11-15T14:42:22;14.80;92.20
5027;DHT22;2532;52.480;13.354;2022-11-15T14:44:49;14.70;92.10
5027;DHT22;2532;52.480;13.354;2022-11-15T14:47:17;14.70;92.10
5027;DHT22;2532;52.480;13.354;2022-11-15T14:49:44;14.70;92.20
5027;DHT22;2532;52.480;13.354;2022-11-15T14:52:23;14.60;92.10
5027;DHT22;2532;52.480;13.354;2022-11-15T14:54:50;14.50;92.10
5027;DHT22;2532;52.480;13.354;2022-11-15T14:57:19;14.50;92.20
5027;DHT22;2532;52.480;13.354;2022-11-15T14:59:46;14.50;92.20
5027;DHT22;2532;52.480;13.354;2022-11-15T15:02:17;14.50;92.20
5027;DHT22;2532;52.480;13.354;2022-11-15T15:04:45;14.50;92.20
5027;DHT22;2532;52.480;13.354;2022-11-15T15:07:12;14.50;92.20
5027;DHT22;2532;52.480;13.354;2022-11-15T15:09:40;14.50;92.20
5027;DHT22;2532;52.480;13.354;2022-11-15T15:12:14;14.40;92.30
5027;DHT22;2532;52.480;13.354;2022-11-15T15:14:44;14.30;92.40
5027;DHT22;2532;52.480;13.354;2022-11-15T15:17:11;14.30;92.50
5027;DHT22;2532;52.480;13.354;2022-11-15T15:19:39;14.30;92.50
5027;DHT22;2532;52.480;13.354;2022-11-15T15:22:10;14.20;92.50
5027;DHT22;2532;52.480;13.354;2022-11-15T15:24:39;14.20;92.50
5027;DHT22;2532;52.480;13.354;2022-11-15T15:27:06;14.20;92.60
5027;DHT22;2532;52.480;13.354;2022-11-15T15:29:33;14.10;92.70
5027;DHT22;2532;52.480;13.354;2022-11-15T15:32:02;14.10;92.80
5027;DHT22;2532;52.480;13.354;2022-11-15T15:34:29;14.10;92.90
5027;DHT22;2532;52.480;13.354;2022-11-15T15:37:18;14.00;92.90
5027;DHT22;2532;52.480;13.354;2022-11-15T15:39:46;13.90;93.00
5027;DHT22;2532;52.480;13.354;2022-11-15T15:42:13;13.80;93.00
5027;DHT22;2532;52.480;13.354;2022-11-15T15:44:41;13.80;93.10
5027;DHT22;2532;52.480;13.354;2022-11-15T15:47:11;13.80;93.20
5027;DHT22;2532;52.480;13.354;2022-11-15T15:49:38;13.80;93.20
5027;DHT22;2532;52.480;13.354;2022-11-15T15:52:08;13.70;93.30
5027;DHT22;2532;52.480;13.354;2022-11-15T15:54:35;13.60;93.50
5027;DHT22;2532;52.480;13.354;2022-11-15T15:57:02;13.60;93.70
5027;DHT22;2532;52.480;13.354;2022-11-15T15:59:31;13.50;93.80
5027;DHT22;2532;52.480;13.354;2022-11-15T16:01:58;13.50;93.90
5027;DHT22;2532;52.480;13.354;2022-11-15T16:04:27;13.40;94.00
5027;DHT22;2532;52.480;13.354;2022-11-15T16:06:58;13.40;94.10
5027;DHT22;2532;52.480;13.354;2022-11-15T16:09:25;13.30;94.10
5027;DHT22;2532;52.480;13.354;2022-11-15T16:12:06;13.30;94.20
5027;DHT22;2532;52.480;13.354;2022-11-15T16:14:34;13.20;94.20
5027;DHT22;2532;52.480;13.354;2022-11-15T16:17:04;13.20;94.40
5027;DHT22;2532;52.480;13.354;2022-11-15T16:19:32;13.20;94.50
5027;DHT22;2532;52.480;13.354;2022-11-15T16:21:59;13.10;94.60
5027;DHT22;2532;52.480;13.354;2022-11-15T16:24:26;13.10;94.60
5027;DHT22;2532;52.480;13.354;2022-11-15T16:26:54;13.10;94.70
5027;DHT22;2532;52.480;13.354;2022-11-15T16:29:21;13.00;94.70
5027;DHT22;2532;52.480;13.354;2022-11-15T16:31:48;13.00;94.70
5027;DHT22;2532;52.480;13.354;2022-11-15T16:34:15;13.00;94.80